sensor_id;sensor_type;location;lat;lon;timestamp;P1;durP1;ratioP1;P2;durP2;ratioP2
39400;SDS011;75540;50.000;7.360;2024-02-16T00:00:24;3.20;;;2.03;;
39400;SDS011;75540;50.000;7.360;2024-02-16T00:02:53;1.70;;;1.10;;
39400;SDS011;75540;50.000;7.360;2024-02-16T00:05:21;3.70;;;1.80;;
39400;SDS011;75540;50.000;7.360;2024-02-16T00:07:49;3.55;;;1.23;;
39400;SDS011;75540;50.000;7.360;2024-02-16T00:10:19;3.47;;;1.50;;
39400;SDS011;75540;50.000;7.360;2024-02-16T00:12:48;2.53;;;1.25;;
39400;SDS011;75540;50.000;7.360;2024-02-16T00:15:17;4.22;;;1.50;;
39400;SDS011;75540;50.000;7.360;2024-02-16T00:17:45;3.70;;;1.98;;
39400;SDS011;75540;50.000;7.360;2024-02-16T00:20:14;5.40;;;1.27;;
39400;SDS011;75540;50.000;7.360;2024-02-16T00:22:42;4.03;;;1.50;;
39400;SDS011;75540;50.000;7.360;2024-02-16T00:25:10;2.80;;;1.42;;
39400;SDS011;75540;50.000;7.360;2024-02-16T00:27:40;5.38;;;1.83;;
39400;SDS011;75540;50.000;7.360;2024-02-16T00:30:09;4.50;;;1.60;;
39400;SDS011;75540;50.000;7.360;2024-02-16T00:32:38;2.75;;;1.30;;
39400;SDS011;75540;50.000;7.360;2024-02-16T00:35:07;2.53;;;1.27;;
39400;SDS011;75540;50.000;7.360;2024-02-16T00:37:35;4.50;;;1.30;;
39400;SDS011;75540;50.000;7.360;2024-02-16T00:40:05;3.90;;;1.70;;
39400;SDS011;75540;50.000;7.360;2024-02-16T00:42:34;4.35;;;1.30;;
39400;SDS011;75540;50.000;7.360;2024-02-16T00:45:04;3.13;;;1.25;;
39400;SDS011;75540;50.000;7.360;2024-02-16T00:47:33;3.00;;;1.63;;
39400;SDS011;75540;50.000;7.360;2024-02-16T00:50:02;3.05;;;1.30;;
39400;SDS011;75540;50.000;7.360;2024-02-16T00:52:32;2.60;;;1.17;;
39400;SDS011;75540;50.000;7.360;2024-02-16T00:55:00;3.22;;;1.60;;
39400;SDS011;75540;50.000;7.360;2024-02-16T00:57:30;3.38;;;1.55;;
39400;SDS011;75540;50.000;7.360;2024-02-16T01:00:01;1.98;;;1.25;;
39400;SDS011;75540;50.000;7.360;2024-02-16T01:02:32;3.90;;;1.42;;
39400;SDS011;75540;50.000;7.360;2024-02-16T01:05:00;7.30;;;1.83;;
39400;SDS011;75540;50.000;7.360;2024-02-16T01:07:30;2.33;;;1.40;;
39400;SDS011;75540;50.000;7.360;2024-02-16T01:09:59;2.92;;;1.17;;
39400;SDS011;75540;50.000;7.360;2024-02-16T01:12:30;5.32;;;1.95;;
39400;SDS011;75540;50.000;7.360;2024-02-16T01:14:59;10.23;;;2.20;;
39400;SDS011;75540;50.000;7.360;2024-02-16T01:17:28;2.33;;;1.30;;
39400;SDS011;75540;50.000;7.360;2024-02-16T01:20:01;7.13;;;1.58;;
39400;SDS011;75540;50.000;7.360;2024-02-16T01:22:31;3.00;;;1.33;;
39400;SDS011;75540;50.000;7.360;2024-02-16T01:24:59;3.28;;;1.50;;
39400;SDS011;75540;50.000;7.360;2024-02-16T01:27:27;4.15;;;1.75;;
39400;SDS011;75540;50.000;7.360;2024-02-16T01:29:56;4.72;;;1.67;;
39400;SDS011;75540;50.000;7.360;2024-02-16T01:32:24;6.97;;;1.58;;
39400;SDS011;75540;50.000;7.360;2024-02-16T01:34:52;3.25;;;1.60;;
39400;SDS011;75540;50.000;7.360;2024-02-16T01:37:22;4.63;;;1.60;;
39400;SDS011;75540;50.000;7.360;2024-02-16T01:39:50;2.65;;;1.45;;
39400;SDS011;75540;50.000;7.360;2024-02-16T01:42:19;4.22;;;1.55;;
39400;SDS011;75540;50.000;7.360;2024-02-16T01:44:47;4.32;;;1.85;;
39400;SDS011;75540;50.000;7.360;2024-02-16T01:47:16;5.35;;;1.50;;
39400;SDS011;75540;50.000;7.360;2024-02-16T01:49:47;2.47;;;1.25;;
39400;SDS011;75540;50.000;7.360;2024-02-16T01:52:16;4.40;;;1.92;;
39400;SDS011;75540;50.000;7.360;2024-02-16T01:54:45;5.80;;;1.70;;
39400;SDS011;75540;50.000;7.360;2024-02-16T01:57:14;3.78;;;1.75;;
39400;SDS011;75540;50.000;7.360;2024-02-16T01:59:42;4.45;;;1.60;;
39400;SDS011;75540;50.000;7.360;2024-02-16T02:02:12;4.05;;;1.50;;
39400;SDS011;75540;50.000;7.360;2024-02-16T02:04:40;3.45;;;1.60;;
39400;SDS011;75540;50.000;7.360;2024-02-16T02:07:13;3.63;;;1.30;;
39400;SDS011;75540;50.000;7.360;2024-02-16T02:09:42;2.25;;;1.52;;
39400;SDS011;75540;50.000;7.360;2024-02-16T02:12:12;4.63;;;1.70;;
39400;SDS011;75540;50.000;7.360;2024-02-16T02:14:40;5.00;;;1.98;;
39400;SDS011;75540;50.000;7.360;2024-02-16T02:17:08;3.80;;;1.77;;
39400;SDS011;75540;50.000;7.360;2024-02-16T02:19:37;4.97;;;2.03;;
39400;SDS011;75540;50.000;7.360;2024-02-16T02:22:11;3.70;;;1.60;;
39400;SDS011;75540;50.000;7.360;2024-02-16T02:24:41;4.53;;;1.50;;
39400;SDS011;75540;50.000;7.360;2024-02-16T02:27:10;4.07;;;2.03;;
39400;SDS011;75540;50.000;7.360;2024-02-16T02:29:39;3.47;;;1.80;;
39400;SDS011;75540;50.000;7.360;2024-02-16T02:32:08;5.18;;;1.70;;
39400;SDS011;75540;50.000;7.360;2024-02-16T02:34:37;4.85;;;1.88;;
39400;SDS011;75540;50.000;7.360;2024-02-16T02:37:06;6.65;;;2.13;;
39400;SDS011;75540;50.000;7.360;2024-02-16T02:39:36;5.28;;;2.20;;
39400;SDS011;75540;50.000;7.360;2024-02-16T02:42:05;5.80;;;2.22;;
39400;SDS011;75540;50.000;7.360;2024-02-16T02:44:35;6.20;;;1.50;;
39400;SDS011;75540;50.000;7.360;2024-02-16T02:47:03;3.50;;;1.90;;
39400;SDS011;75540;50.000;7.360;2024-02-16T02:49:32;3.25;;;1.63;;
39400;SDS011;75540;50.000;7.360;2024-02-16T02:52:02;7.80;;;2.35;;
39400;SDS011;75540;50.000;7.360;2024-02-16T02:54:30;4.20;;;1.88;;
39400;SDS011;75540;50.000;7.360;2024-02-16T02:57:00;5.70;;;1.90;;
39400;SDS011;75540;50.000;7.360;2024-02-16T02:59:29;6.28;;;1.98;;
39400;SDS011;75540;50.000;7.360;2024-02-16T03:01:58;4.80;;;1.90;;
39400;SDS011;75540;50.000;7.360;2024-02-16T03:04:26;3.65;;;1.80;;
39400;SDS011;75540;50.000;7.360;2024-02-16T03:06:55;2.38;;;1.48;;
39400;SDS011;75540;50.000;7.360;2024-02-16T03:09:23;4.95;;;1.90;;
39400;SDS011;75540;50.000;7.360;2024-02-16T03:11:54;3.75;;;1.88;;
39400;SDS011;75540;50.000;7.360;2024-02-16T03:14:24;4.15;;;1.88;;
39400;SDS011;75540;50.000;7.360;2024-02-16T03:16:53;5.07;;;2.10;;
39400;SDS011;75540;50.000;7.360;2024-02-16T03:19:21;4.57;;;2.10;;
39400;SDS011;75540;50.000;7.360;2024-02-16T03:21:50;4.47;;;1.98;;
39400;SDS011;75540;50.000;7.360;2024-02-16T03:24:18;3.42;;;1.92;;
39400;SDS011;75540;50.000;7.360;2024-02-16T03:26:47;4.93;;;1.90;;
39400;SDS011;75540;50.000;7.360;2024-02-16T03:29:16;3.80;;;2.03;;
39400;SDS011;75540;50.000;7.360;2024-02-16T03:31:46;4.45;;;2.00;;
39400;SDS011;75540;50.000;7.360;2024-02-16T03:34:14;4.72;;;1.80;;
39400;SDS011;75540;50.000;7.360;2024-02-16T03:36:43;4.40;;;1.98;;
39400;SDS011;75540;50.000;7.360;2024-02-16T03:39:11;3.33;;;1.75;;
39400;SDS011;75540;50.000;7.360;2024-02-16T03:41:39;3.60;;;1.85;;
39400;SDS011;75540;50.000;7.360;2024-02-16T03:44:08;4.30;;;1.88;;
39400;SDS011;75540;50.000;7.360;2024-02-16T03:46:36;6.95;;;2.38;;
39400;SDS011;75540;50.000;7.360;2024-02-16T03:49:06;4.18;;;1.85;;
39400;SDS011;75540;50.000;7.360;2024-02-16T03:51:34;3.47;;;1.58;;
39400;SDS011;75540;50.000;7.360;2024-02-16T03:54:03;8.68;;;2.30;;
39400;SDS011;75540;50.000;7.360;2024-02-16T03:56:32;5.80;;;2.25;;
39400;SDS011;75540;50.000;7.360;2024-02-16T03:59:01;3.45;;;1.77;;
39400;SDS011;75540;50.000;7.360;2024-02-16T04:01:32;3.00;;;1.92;;
39400;SDS011;75540;50.000;7.360;2024-02-16T04:04:01;4.13;;;1.60;;
39400;SDS011;75540;50.000;7.360;2024-02-16T04:06:31;2.58;;;1.65;;
39400;SDS011;75540;50.000;7.360;2024-02-16T04:09:00;5.40;;;2.00;;
39400;SDS011;75540;50.000;7.360;2024-02-16T04:11:28;4.45;;;1.98;;
39400;SDS011;75540;50.000;7.360;2024-02-16T04:13:57;2.88;;;2.47;;
39400;SDS011;75540;50.000;7.360;2024-02-16T04:16:25;3.40;;;2.00;;
39400;SDS011;75540;50.000;7.360;2024-02-16T04:18:54;4.20;;;2.03;;
39400;SDS011;75540;50.000;7.360;2024-02-16T04:21:23;4.00;;;1.90;;
39400;SDS011;75540;50.000;7.360;2024-02-16T04:23:53;7.15;;;2.17;;
39400;SDS011;75540;50.000;7.360;2024-02-16T04:26:21;4.97;;;2.33;;
39400;SDS011;75540;50.000;7.360;2024-02-16T04:28:49;6.50;;;2.30;;
39400;SDS011;75540;50.000;7.360;2024-02-16T04:31:18;5.70;;;2.05;;
39400;SDS011;75540;50.000;7.360;2024-02-16T04:33:46;4.95;;;2.63;;
39400;SDS011;75540;50.000;7.360;2024-02-16T04:36:15;5.50;;;2.47;;
39400;SDS011;75540;50.000;7.360;2024-02-16T04:38:44;2.85;;;1.98;;
39400;SDS011;75540;50.000;7.360;2024-02-16T04:41:15;3.80;;;1.83;;
39400;SDS011;75540;50.000;7.360;2024-02-16T04:43:43;5.32;;;2.10;;
39400;SDS011;75540;50.000;7.360;2024-02-16T04:46:13;3.60;;;1.90;;
39400;SDS011;75540;50.000;7.360;2024-02-16T04:48:42;4.53;;;1.95;;
39400;SDS011;75540;50.000;7.360;2024-02-16T04:51:11;3.55;;;1.88;;
39400;SDS011;75540;50.000;7.360;2024-02-16T04:53:40;4.10;;;1.73;;
39400;SDS011;75540;50.000;7.360;2024-02-16T04:56:08;5.07;;;1.90;;
39400;SDS011;75540;50.000;7.360;2024-02-16T04:58:41;3.25;;;1.73;;
39400;SDS011;75540;50.000;7.360;2024-02-16T05:01:09;5.68;;;1.98;;
39400;SDS011;75540;50.000;7.360;2024-02-16T05:03:37;3.70;;;1.55;;
39400;SDS011;75540;50.000;7.360;2024-02-16T05:06:08;4.00;;;1.90;;
39400;SDS011;75540;50.000;7.360;2024-02-16T05:08:36;3.78;;;1.88;;
39400;SDS011;75540;50.000;7.360;2024-02-16T05:11:05;6.47;;;1.92;;
39400;SDS011;75540;50.000;7.360;2024-02-16T05:13:35;3.63;;;1.95;;
39400;SDS011;75540;50.000;7.360;2024-02-16T05:16:08;3.97;;;2.22;;
39400;SDS011;75540;50.000;7.360;2024-02-16T05:18:38;5.05;;;1.88;;
39400;SDS011;75540;50.000;7.360;2024-02-16T05:21:07;4.05;;;1.77;;
39400;SDS011;75540;50.000;7.360;2024-02-16T05:23:36;3.05;;;1.45;;
39400;SDS011;75540;50.000;7.360;2024-02-16T05:26:05;4.03;;;1.58;;
39400;SDS011;75540;50.000;7.360;2024-02-16T05:28:33;4.30;;;1.67;;
39400;SDS011;75540;50.000;7.360;2024-02-16T05:31:04;4.00;;;1.73;;
39400;SDS011;75540;50.000;7.360;2024-02-16T05:33:44;4.90;;;1.85;;
39400;SDS011;75540;50.000;7.360;2024-02-16T05:36:17;4.38;;;1.83;;
39400;SDS011;75540;50.000;7.360;2024-02-16T05:38:47;3.10;;;1.70;;
39400;SDS011;75540;50.000;7.360;2024-02-16T05:41:16;2.70;;;1.48;;
39400;SDS011;75540;50.000;7.360;2024-02-16T05:43:44;3.33;;;1.58;;
39400;SDS011;75540;50.000;7.360;2024-02-16T05:46:14;4.45;;;1.70;;
39400;SDS011;75540;50.000;7.360;2024-02-16T05:48:43;4.22;;;1.70;;
39400;SDS011;75540;50.000;7.360;2024-02-16T05:51:13;4.82;;;1.77;;
39400;SDS011;75540;50.000;7.360;2024-02-16T05:53:41;8.00;;;2.75;;
39400;SDS011;75540;50.000;7.360;2024-02-16T05:56:11;3.22;;;1.83;;
39400;SDS011;75540;50.000;7.360;2024-02-16T05:58:39;4.38;;;1.50;;
39400;SDS011;75540;50.000;7.360;2024-02-16T06:01:08;4.38;;;1.60;;
39400;SDS011;75540;50.000;7.360;2024-02-16T06:03:42;3.40;;;1.70;;
39400;SDS011;75540;50.000;7.360;2024-02-16T06:06:11;3.20;;;1.80;;
39400;SDS011;75540;50.000;7.360;2024-02-16T06:08:40;4.45;;;1.75;;
39400;SDS011;75540;50.000;7.360;2024-02-16T06:11:08;3.13;;;1.60;;
39400;SDS011;75540;50.000;7.360;2024-02-16T06:13:36;5.57;;;2.03;;
39400;SDS011;75540;50.000;7.360;2024-02-16T06:16:06;3.80;;;2.03;;
39400;SDS011;75540;50.000;7.360;2024-02-16T06:18:35;3.55;;;1.90;;
39400;SDS011;75540;50.000;7.360;2024-02-16T06:21:05;2.95;;;1.90;;
39400;SDS011;75540;50.000;7.360;2024-02-16T06:23:34;4.60;;;2.08;;
39400;SDS011;75540;50.000;7.360;2024-02-16T06:26:02;3.15;;;1.70;;
39400;SDS011;75540;50.000;7.360;2024-02-16T06:28:33;5.38;;;1.83;;
39400;SDS011;75540;50.000;7.360;2024-02-16T06:31:01;4.40;;;1.73;;
39400;SDS011;75540;50.000;7.360;2024-02-16T06:33:31;2.63;;;1.58;;
39400;SDS011;75540;50.000;7.360;2024-02-16T06:35:59;5.05;;;2.25;;
39400;SDS011;75540;50.000;7.360;2024-02-16T06:38:29;4.30;;;1.85;;
39400;SDS011;75540;50.000;7.360;2024-02-16T06:40:57;4.57;;;1.65;;
39400;SDS011;75540;50.000;7.360;2024-02-16T06:43:25;4.05;;;1.90;;
39400;SDS011;75540;50.000;7.360;2024-02-16T06:45:54;5.65;;;1.80;;
39400;SDS011;75540;50.000;7.360;2024-02-16T06:48:23;3.20;;;1.75;;
39400;SDS011;75540;50.000;7.360;2024-02-16T06:50:51;4.55;;;1.85;;
39400;SDS011;75540;50.000;7.360;2024-02-16T06:53:21;4.53;;;1.90;;
39400;SDS011;75540;50.000;7.360;2024-02-16T06:55:51;4.03;;;1.80;;
39400;SDS011;75540;50.000;7.360;2024-02-16T06:58:19;2.67;;;1.90;;
39400;SDS011;75540;50.000;7.360;2024-02-16T07:00:47;4.80;;;2.00;;
39400;SDS011;75540;50.000;7.360;2024-02-16T07:03:16;3.05;;;1.70;;
39400;SDS011;75540;50.000;7.360;2024-02-16T07:05:45;6.57;;;2.08;;
39400;SDS011;75540;50.000;7.360;2024-02-16T07:08:13;4.20;;;2.00;;
39400;SDS011;75540;50.000;7.360;2024-02-16T07:10:41;2.97;;;1.83;;
39400;SDS011;75540;50.000;7.360;2024-02-16T07:13:12;4.57;;;1.45;;
39400;SDS011;75540;50.000;7.360;2024-02-16T07:15:40;4.28;;;1.73;;
39400;SDS011;75540;50.000;7.360;2024-02-16T07:18:08;5.70;;;1.90;;
39400;SDS011;75540;50.000;7.360;2024-02-16T07:20:37;5.20;;;1.80;;
39400;SDS011;75540;50.000;7.360;2024-02-16T07:23:05;4.43;;;1.80;;
39400;SDS011;75540;50.000;7.360;2024-02-16T07:25:33;5.88;;;2.00;;
39400;SDS011;75540;50.000;7.360;2024-02-16T07:28:02;3.63;;;1.58;;
39400;SDS011;75540;50.000;7.360;2024-02-16T07:30:33;3.63;;;1.67;;
39400;SDS011;75540;50.000;7.360;2024-02-16T07:33:09;6.22;;;1.80;;
39400;SDS011;75540;50.000;7.360;2024-02-16T07:35:37;4.53;;;1.70;;
39400;SDS011;75540;50.000;7.360;2024-02-16T07:38:06;5.05;;;1.88;;
39400;SDS011;75540;50.000;7.360;2024-02-16T07:40:35;4.10;;;2.13;;
39400;SDS011;75540;50.000;7.360;2024-02-16T07:43:03;3.92;;;1.70;;
39400;SDS011;75540;50.000;7.360;2024-02-16T07:45:33;3.40;;;1.80;;
39400;SDS011;75540;50.000;7.360;2024-02-16T07:48:02;3.53;;;2.17;;
39400;SDS011;75540;50.000;7.360;2024-02-16T07:50:32;5.35;;;1.90;;
39400;SDS011;75540;50.000;7.360;2024-02-16T07:53:01;3.38;;;1.70;;
39400;SDS011;75540;50.000;7.360;2024-02-16T07:55:29;3.95;;;1.98;;
39400;SDS011;75540;50.000;7.360;2024-02-16T07:57:58;2.33;;;1.50;;
39400;SDS011;75540;50.000;7.360;2024-02-16T08:00:26;4.15;;;1.73;;
39400;SDS011;75540;50.000;7.360;2024-02-16T08:02:56;4.35;;;1.70;;
39400;SDS011;75540;50.000;7.360;2024-02-16T08:05:25;3.85;;;1.67;;
39400;SDS011;75540;50.000;7.360;2024-02-16T08:07:53;5.32;;;2.15;;
39400;SDS011;75540;50.000;7.360;2024-02-16T08:10:22;5.57;;;2.17;;
39400;SDS011;75540;50.000;7.360;2024-02-16T08:12:51;5.35;;;1.77;;
39400;SDS011;75540;50.000;7.360;2024-02-16T08:15:20;4.93;;;2.10;;
39400;SDS011;75540;50.000;7.360;2024-02-16T08:17:51;2.72;;;1.60;;
39400;SDS011;75540;50.000;7.360;2024-02-16T08:20:22;4.72;;;1.88;;
39400;SDS011;75540;50.000;7.360;2024-02-16T08:22:50;5.28;;;2.05;;
39400;SDS011;75540;50.000;7.360;2024-02-16T08:25:19;5.13;;;1.80;;
39400;SDS011;75540;50.000;7.360;2024-02-16T08:27:47;3.60;;;1.70;;
39400;SDS011;75540;50.000;7.360;2024-02-16T08:30:16;5.00;;;2.10;;
39400;SDS011;75540;50.000;7.360;2024-02-16T08:32:45;4.07;;;1.85;;
39400;SDS011;75540;50.000;7.360;2024-02-16T08:35:13;2.70;;;1.63;;
39400;SDS011;75540;50.000;7.360;2024-02-16T08:37:45;3.25;;;1.95;;
39400;SDS011;75540;50.000;7.360;2024-02-16T08:40:13;5.43;;;2.05;;
39400;SDS011;75540;50.000;7.360;2024-02-16T08:42:42;3.10;;;1.73;;
39400;SDS011;75540;50.000;7.360;2024-02-16T08:45:11;5.38;;;1.98;;
39400;SDS011;75540;50.000;7.360;2024-02-16T08:47:40;4.25;;;2.20;;
39400;SDS011;75540;50.000;7.360;2024-02-16T08:50:08;7.25;;;2.90;;
39400;SDS011;75540;50.000;7.360;2024-02-16T08:52:38;5.68;;;2.63;;
39400;SDS011;75540;50.000;7.360;2024-02-16T08:55:08;6.72;;;3.10;;
39400;SDS011;75540;50.000;7.360;2024-02-16T08:57:36;6.00;;;3.17;;
39400;SDS011;75540;50.000;7.360;2024-02-16T09:00:06;3.47;;;2.20;;
39400;SDS011;75540;50.000;7.360;2024-02-16T09:02:36;4.32;;;2.05;;
39400;SDS011;75540;50.000;7.360;2024-02-16T09:05:04;4.40;;;2.10;;
39400;SDS011;75540;50.000;7.360;2024-02-16T09:07:36;3.35;;;2.13;;
39400;SDS011;75540;50.000;7.360;2024-02-16T09:10:05;7.13;;;2.00;;
39400;SDS011;75540;50.000;7.360;2024-02-16T09:12:36;4.30;;;1.85;;
39400;SDS011;75540;50.000;7.360;2024-02-16T09:15:04;9.85;;;2.10;;
39400;SDS011;75540;50.000;7.360;2024-02-16T09:17:33;4.40;;;1.75;;
39400;SDS011;75540;50.000;7.360;2024-02-16T09:20:01;3.80;;;1.90;;
39400;SDS011;75540;50.000;7.360;2024-02-16T09:22:31;5.25;;;2.30;;
39400;SDS011;75540;50.000;7.360;2024-02-16T09:25:03;4.72;;;1.80;;
39400;SDS011;75540;50.000;7.360;2024-02-16T09:27:32;4.35;;;1.73;;
39400;SDS011;75540;50.000;7.360;2024-02-16T09:30:02;4.70;;;1.75;;
39400;SDS011;75540;50.000;7.360;2024-02-16T09:32:31;4.78;;;2.00;;
39400;SDS011;75540;50.000;7.360;2024-02-16T09:34:59;7.70;;;1.75;;
39400;SDS011;75540;50.000;7.360;2024-02-16T09:37:28;5.25;;;2.40;;
39400;SDS011;75540;50.000;7.360;2024-02-16T09:39:56;8.13;;;2.25;;
39400;SDS011;75540;50.000;7.360;2024-02-16T09:42:24;6.00;;;2.10;;
39400;SDS011;75540;50.000;7.360;2024-02-16T09:44:54;5.13;;;1.88;;
39400;SDS011;75540;50.000;7.360;2024-02-16T09:47:24;5.35;;;1.95;;
39400;SDS011;75540;50.000;7.360;2024-02-16T09:49:55;7.95;;;2.47;;
39400;SDS011;75540;50.000;7.360;2024-02-16T09:52:24;6.13;;;2.33;;
39400;SDS011;75540;50.000;7.360;2024-02-16T09:54:52;6.80;;;2.95;;
39400;SDS011;75540;50.000;7.360;2024-02-16T09:57:20;4.97;;;2.95;;
39400;SDS011;75540;50.000;7.360;2024-02-16T09:59:49;5.80;;;2.30;;
39400;SDS011;75540;50.000;7.360;2024-02-16T10:02:17;3.35;;;1.90;;
39400;SDS011;75540;50.000;7.360;2024-02-16T10:04:47;4.10;;;1.77;;
39400;SDS011;75540;50.000;7.360;2024-02-16T10:07:15;3.95;;;1.75;;
39400;SDS011;75540;50.000;7.360;2024-02-16T10:09:45;7.32;;;2.80;;
39400;SDS011;75540;50.000;7.360;2024-02-16T10:12:17;8.43;;;2.38;;
39400;SDS011;75540;50.000;7.360;2024-02-16T10:14:53;6.60;;;2.67;;
39400;SDS011;75540;50.000;7.360;2024-02-16T10:17:22;4.85;;;2.30;;
39400;SDS011;75540;50.000;7.360;2024-02-16T10:19:56;2.58;;;1.65;;
39400;SDS011;75540;50.000;7.360;2024-02-16T10:22:25;6.18;;;2.40;;
39400;SDS011;75540;50.000;7.360;2024-02-16T10:24:53;7.82;;;2.13;;
39400;SDS011;75540;50.000;7.360;2024-02-16T10:27:21;5.88;;;2.38;;
39400;SDS011;75540;50.000;7.360;2024-02-16T10:29:50;4.82;;;2.05;;
39400;SDS011;75540;50.000;7.360;2024-02-16T10:32:22;8.75;;;2.05;;
39400;SDS011;75540;50.000;7.360;2024-02-16T10:34:51;7.85;;;2.38;;
39400;SDS011;75540;50.000;7.360;2024-02-16T10:37:21;8.20;;;3.20;;
39400;SDS011;75540;50.000;7.360;2024-02-16T10:39:51;7.43;;;2.05;;
39400;SDS011;75540;50.000;7.360;2024-02-16T10:42:24;5.35;;;2.42;;
39400;SDS011;75540;50.000;7.360;2024-02-16T10:44:55;4.35;;;2.38;;
39400;SDS011;75540;50.000;7.360;2024-02-16T10:47:23;5.25;;;2.30;;
39400;SDS011;75540;50.000;7.360;2024-02-16T10:49:52;4.10;;;1.85;;
39400;SDS011;75540;50.000;7.360;2024-02-16T10:52:21;6.13;;;1.98;;
39400;SDS011;75540;50.000;7.360;2024-02-16T10:54:51;7.10;;;2.58;;
39400;SDS011;75540;50.000;7.360;2024-02-16T10:57:20;4.80;;;2.55;;
39400;SDS011;75540;50.000;7.360;2024-02-16T10:59:52;4.70;;;2.17;;
39400;SDS011;75540;50.000;7.360;2024-02-16T11:02:21;4.45;;;2.47;;
39400;SDS011;75540;50.000;7.360;2024-02-16T11:04:51;4.28;;;2.20;;
39400;SDS011;75540;50.000;7.360;2024-02-16T11:07:22;6.97;;;3.05;;
39400;SDS011;75540;50.000;7.360;2024-02-16T11:09:53;5.43;;;2.70;;
39400;SDS011;75540;50.000;7.360;2024-02-16T11:12:22;4.95;;;2.88;;
39400;SDS011;75540;50.000;7.360;2024-02-16T11:14:50;5.75;;;2.08;;
39400;SDS011;75540;50.000;7.360;2024-02-16T11:17:22;8.70;;;2.60;;
39400;SDS011;75540;50.000;7.360;2024-02-16T11:19:53;7.82;;;2.67;;
39400;SDS011;75540;50.000;7.360;2024-02-16T11:22:26;10.75;;;2.90;;
39400;SDS011;75540;50.000;7.360;2024-02-16T11:24:55;9.63;;;2.95;;
39400;SDS011;75540;50.000;7.360;2024-02-16T11:27:27;7.20;;;3.00;;
39400;SDS011;75540;50.000;7.360;2024-02-16T11:30:01;6.75;;;2.33;;
39400;SDS011;75540;50.000;7.360;2024-02-16T11:32:32;7.78;;;2.55;;
39400;SDS011;75540;50.000;7.360;2024-02-16T11:35:05;4.72;;;2.28;;
39400;SDS011;75540;50.000;7.360;2024-02-16T11:37:36;8.05;;;2.42;;
39400;SDS011;75540;50.000;7.360;2024-02-16T11:40:05;4.75;;;2.08;;
39400;SDS011;75540;50.000;7.360;2024-02-16T11:42:35;5.82;;;2.45;;
39400;SDS011;75540;50.000;7.360;2024-02-16T11:45:04;5.80;;;2.50;;
39400;SDS011;75540;50.000;7.360;2024-02-16T11:47:33;5.25;;;2.63;;
39400;SDS011;75540;50.000;7.360;2024-02-16T11:50:02;4.15;;;2.10;;
39400;SDS011;75540;50.000;7.360;2024-02-16T11:52:31;3.50;;;2.33;;
39400;SDS011;75540;50.000;7.360;2024-02-16T11:55:03;6.32;;;1.80;;
39400;SDS011;75540;50.000;7.360;2024-02-16T11:57:32;6.10;;;2.25;;
39400;SDS011;75540;50.000;7.360;2024-02-16T12:00:01;4.68;;;1.85;;
39400;SDS011;75540;50.000;7.360;2024-02-16T12:02:34;8.38;;;2.38;;
39400;SDS011;75540;50.000;7.360;2024-02-16T12:05:04;5.88;;;2.70;;
39400;SDS011;75540;50.000;7.360;2024-02-16T12:07:36;7.32;;;2.83;;
39400;SDS011;75540;50.000;7.360;2024-02-16T12:10:10;5.22;;;2.45;;
39400;SDS011;75540;50.000;7.360;2024-02-16T12:12:38;3.75;;;2.22;;
39400;SDS011;75540;50.000;7.360;2024-02-16T12:15:09;8.77;;;2.63;;
39400;SDS011;75540;50.000;7.360;2024-02-16T12:17:40;3.90;;;1.88;;
39400;SDS011;75540;50.000;7.360;2024-02-16T12:20:10;6.57;;;2.63;;
39400;SDS011;75540;50.000;7.360;2024-02-16T12:22:41;4.50;;;2.05;;
39400;SDS011;75540;50.000;7.360;2024-02-16T12:25:11;3.92;;;2.15;;
39400;SDS011;75540;50.000;7.360;2024-02-16T12:27:39;6.70;;;2.55;;
39400;SDS011;75540;50.000;7.360;2024-02-16T12:30:08;5.78;;;2.70;;
39400;SDS011;75540;50.000;7.360;2024-02-16T12:32:38;4.28;;;2.15;;
39400;SDS011;75540;50.000;7.360;2024-02-16T12:35:06;5.72;;;2.30;;
39400;SDS011;75540;50.000;7.360;2024-02-16T12:37:36;4.63;;;2.53;;
39400;SDS011;75540;50.000;7.360;2024-02-16T12:40:05;8.52;;;2.42;;
39400;SDS011;75540;50.000;7.360;2024-02-16T12:42:36;7.35;;;2.60;;
39400;SDS011;75540;50.000;7.360;2024-02-16T12:45:05;5.30;;;2.35;;
39400;SDS011;75540;50.000;7.360;2024-02-16T12:47:33;7.32;;;2.58;;
39400;SDS011;75540;50.000;7.360;2024-02-16T12:50:02;4.72;;;2.42;;
39400;SDS011;75540;50.000;7.360;2024-02-16T12:52:31;6.40;;;2.38;;
39400;SDS011;75540;50.000;7.360;2024-02-16T12:55:12;4.93;;;2.72;;
39400;SDS011;75540;50.000;7.360;2024-02-16T12:57:44;3.65;;;2.50;;
39400;SDS011;75540;50.000;7.360;2024-02-16T13:00:12;5.28;;;2.35;;
39400;SDS011;75540;50.000;7.360;2024-02-16T13:02:41;4.00;;;2.20;;
39400;SDS011;75540;50.000;7.360;2024-02-16T13:05:10;5.25;;;2.20;;
39400;SDS011;75540;50.000;7.360;2024-02-16T13:07:38;3.10;;;1.77;;
39400;SDS011;75540;50.000;7.360;2024-02-16T13:10:08;4.32;;;2.30;;
39400;SDS011;75540;50.000;7.360;2024-02-16T13:12:37;4.60;;;1.98;;
39400;SDS011;75540;50.000;7.360;2024-02-16T13:15:07;5.90;;;2.00;;
39400;SDS011;75540;50.000;7.360;2024-02-16T13:17:54;4.95;;;2.40;;
39400;SDS011;75540;50.000;7.360;2024-02-16T13:20:23;5.75;;;2.50;;
39400;SDS011;75540;50.000;7.360;2024-02-16T13:22:52;4.55;;;2.38;;
39400;SDS011;75540;50.000;7.360;2024-02-16T13:25:20;3.90;;;2.60;;
39400;SDS011;75540;50.000;7.360;2024-02-16T13:27:49;4.40;;;2.38;;
39400;SDS011;75540;50.000;7.360;2024-02-16T13:30:18;3.83;;;2.20;;
39400;SDS011;75540;50.000;7.360;2024-02-16T13:32:47;6.43;;;2.20;;
39400;SDS011;75540;50.000;7.360;2024-02-16T13:35:15;4.05;;;2.35;;
39400;SDS011;75540;50.000;7.360;2024-02-16T13:37:47;4.57;;;2.40;;
39400;SDS011;75540;50.000;7.360;2024-02-16T13:40:16;3.88;;;2.42;;
39400;SDS011;75540;50.000;7.360;2024-02-16T13:42:45;9.50;;;2.78;;
39400;SDS011;75540;50.000;7.360;2024-02-16T13:45:14;3.22;;;1.88;;
39400;SDS011;75540;50.000;7.360;2024-02-16T13:47:44;5.03;;;2.00;;
39400;SDS011;75540;50.000;7.360;2024-02-16T13:50:12;5.25;;;2.25;;
39400;SDS011;75540;50.000;7.360;2024-02-16T13:52:41;6.57;;;2.97;;
39400;SDS011;75540;50.000;7.360;2024-02-16T13:55:10;5.22;;;2.17;;
39400;SDS011;75540;50.000;7.360;2024-02-16T13:57:39;5.60;;;2.35;;
39400;SDS011;75540;50.000;7.360;2024-02-16T14:00:07;6.32;;;2.25;;
39400;SDS011;75540;50.000;7.360;2024-02-16T14:02:39;4.03;;;1.98;;
39400;SDS011;75540;50.000;7.360;2024-02-16T14:05:09;5.88;;;2.13;;
39400;SDS011;75540;50.000;7.360;2024-02-16T14:07:42;3.00;;;1.80;;
39400;SDS011;75540;50.000;7.360;2024-02-16T14:10:23;3.40;;;1.85;;
39400;SDS011;75540;50.000;7.360;2024-02-16T14:12:51;3.30;;;2.25;;
39400;SDS011;75540;50.000;7.360;2024-02-16T14:15:20;4.07;;;2.45;;
39400;SDS011;75540;50.000;7.360;2024-02-16T14:17:48;3.33;;;2.00;;
39400;SDS011;75540;50.000;7.360;2024-02-16T14:20:18;2.53;;;1.70;;
39400;SDS011;75540;50.000;7.360;2024-02-16T14:22:48;4.90;;;2.25;;
39400;SDS011;75540;50.000;7.360;2024-02-16T14:25:18;4.85;;;2.40;;
39400;SDS011;75540;50.000;7.360;2024-02-16T14:27:46;4.43;;;2.42;;
39400;SDS011;75540;50.000;7.360;2024-02-16T14:30:15;3.78;;;2.25;;
39400;SDS011;75540;50.000;7.360;2024-02-16T14:32:43;3.83;;;2.08;;
39400;SDS011;75540;50.000;7.360;2024-02-16T14:35:11;7.13;;;3.00;;
39400;SDS011;75540;50.000;7.360;2024-02-16T14:37:41;5.07;;;2.00;;
39400;SDS011;75540;50.000;7.360;2024-02-16T14:40:10;4.30;;;1.95;;
39400;SDS011;75540;50.000;7.360;2024-02-16T14:42:39;4.15;;;1.90;;
39400;SDS011;75540;50.000;7.360;2024-02-16T14:45:07;3.10;;;1.50;;
39400;SDS011;75540;50.000;7.360;2024-02-16T14:47:47;3.65;;;1.85;;
39400;SDS011;75540;50.000;7.360;2024-02-16T14:50:16;4.00;;;1.92;;
39400;SDS011;75540;50.000;7.360;2024-02-16T14:52:46;4.75;;;2.10;;
39400;SDS011;75540;50.000;7.360;2024-02-16T14:55:14;2.63;;;1.42;;
39400;SDS011;75540;50.000;7.360;2024-02-16T14:57:43;4.55;;;1.70;;
39400;SDS011;75540;50.000;7.360;2024-02-16T15:00:12;3.22;;;1.60;;